• Join FlightAware (Why Join?)
  • Login
  • US Flag GB Flag 
00:08 EDT


 

Airport Tracker/Info


-or-


 

Live Flight TrackerFlight Track Log ✈ N818GM ✈ 29-Aug-2013 ✈ KTLH - KAPF

Flight Track Log - Related Links

Times and Time Zones

All times are in EDT time to prevent confusion due to time zone crossing. See the N818GM flight status page for this flight to view local times or setup timezone preferences in your user account.

Time Position Orientation Groundspeed Altitude Reporting Facility
EDT Latitude Longitude Course Direction KTS MPH feet Rate Location/Type
13:38 30.5046 -84.3121 134° Southeast  Level FlightAware Approximate
13:39 30.4722 -84.2732 134° Southeast  Level FlightAware Approximate
13:40 30.4440 -84.2303 126° Southeast  Level FlightAware Approximate
13:41 30.4166 -84.1866 126° Southeast  Level FlightAware Approximate
13:42 30.3893 -84.1429 126° Southeast  Level FlightAware Approximate
13:43 30.3601 -84.1008 130° Southeast  Level FlightAware Approximate
13:44 30.3286 -84.0567 130° Southeast  Level FlightAware Approximate
13:45 30.2972 -84.0125 128° Southeast  Level FlightAware Approximate
13:46 30.2671 -83.9672 128° Southeast  Level FlightAware Approximate
13:47 30.2369 -83.9220 128° Southeast  Level FlightAware Approximate
13:47 30.2617 -84.0014 133° Southeast 162 186 6,300  Level Jacksonville Center
13:48 30.2068 -83.8767 128° Southeast  Level FlightAware Approximate
13:48 30.2308 -83.9600 131° Southeast 162 186 7,000  Level Jacksonville Center
13:49 30.1766 -83.8315 128° Southeast  Level FlightAware Approximate
13:49 30.1997 -83.9139 128° Southeast 162 186 7,000  Level Jacksonville Center
13:50 30.1441 -83.7885 133° Southeast  Level FlightAware Approximate
13:50 30.1689 -83.8681 128° Southeast 173 199 6,900  Level Jacksonville Center
13:51 30.1106 -83.7465 133° Southeast  Level FlightAware Approximate
13:51 30.1358 -83.8219 130° Southeast 179 206 7,000  Level Jacksonville Center
13:52 30.0778 -83.7055 133° Southeast  Level FlightAware Approximate
13:52 30.1028 -83.7761 130° Southeast 185 213 7,000  Level Jacksonville Center
13:53 30.0717 -83.7278 127° Southeast 185 213 7,000  Level Jacksonville Center
13:54 30.0386 -83.6819 130° Southeast 185 213 7,000  Level Jacksonville Center
13:55 30.0056 -83.6336 128° Southeast 185 213 7,000  Level Jacksonville Center
13:56 29.9722 -83.5878 130° Southeast 185 213 7,000  Level Jacksonville Center
13:57 29.9414 -83.5397 127° Southeast 185 213 7,000  Level Jacksonville Center
13:58 29.9103 -83.4964 130° Southeast 185 213 7,000  Level Jacksonville Center
13:59 29.8769 -83.4483 129° Southeast 185 213 7,000  Level Jacksonville Center
14:00 29.8439 -83.4003 128° Southeast 185 213 7,000  Level Jacksonville Center
14:01 29.8106 -83.3544 130° Southeast 185 213 7,000  Level Jacksonville Center
14:02 29.7711 -83.3233 146° Southeast 185 213 7,000  Level Jacksonville Center
14:03 29.7208 -83.3231 180° South 169 194 7,000  Level Jacksonville Center
14:04 29.6708 -83.3206 178° South 174 200 7,000  Level Jacksonville Center
14:05 29.6206 -83.3203 180° South 180 207 7,000  Level Jacksonville Center
14:06 29.5728 -83.3128 172° South 180 207 7,000  Level Jacksonville Center
14:07 29.5247 -83.2958 163° South 180 207 7,000  Level Jacksonville Center
14:08 29.4808 -83.2814 164° South 180 207 7,000  Level Jacksonville Center
14:09 29.4350 -83.2669 165° South 180 207 7,000  Level Jacksonville Center
14:10 29.3892 -83.2478 160° South 180 207 7,000  Level Jacksonville Center
14:11 29.3433 -83.2236 155° Southeast 180 207 7,000  Level Jacksonville Center
14:12 29.3017 -83.1975 151° Southeast 180 207 7,000  Level Jacksonville Center
14:13 29.2600 -83.1711 151° Southeast 180 207 7,000 -60 Level Jacksonville Center
14:14 29.2161 -83.1447 152° Southeast 175 201 6,900 -60 Descending Jacksonville Center
14:15 29.1725 -83.1186 152° Southeast 175 201 6,900  Level Jacksonville Center
14:16 29.1286 -83.0947 155° Southeast 175 201 6,900  Level Jacksonville Center
14:17 29.0847 -83.0708 155° Southeast 175 201 6,900  Level Jacksonville Center
14:18 29.0411 -83.0444 152° Southeast 175 201 6,900  Level Jacksonville Center
14:19 28.9972 -83.0183 153° Southeast 175 201 6,900  Level Jacksonville Center
14:20 28.9533 -82.9969 157° South 175 201 6,900  Level Jacksonville Center
14:21 28.9075 -82.9756 158° South 175 201 6,900  Level Jacksonville Center
14:22 28.8617 -82.9519 156° South 175 201 6,900  Level Jacksonville Center
14:23 28.8178 -82.9328 159° South 175 201 6,900  Level Jacksonville Center
14:26 28.7337 -82.8879 155° Southeast  Level FlightAware Approximate
14:33 28.4344 -82.7281 155° Southeast  Level FlightAware Approximate
14:34 28.3916 -82.7053 155° Southeast  Level FlightAware Approximate
14:35 28.3489 -82.6825 155° Southeast  Level FlightAware Approximate
14:36 28.3061 -82.6597 155° Southeast  Level FlightAware Approximate
14:37 28.2634 -82.6370 155° Southeast  Level FlightAware Approximate
14:38 28.2206 -82.6142 155° Southeast  Level FlightAware Approximate
14:39 28.1778 -82.5915 155° Southeast  Level FlightAware Approximate
14:40 28.1351 -82.5688 155° Southeast  Level FlightAware Approximate
14:41 28.0923 -82.5461 155° Southeast  Level FlightAware Approximate
14:42 28.0495 -82.5235 155° Southeast  Level FlightAware Approximate
14:43 28.0068 -82.5008 155° Southeast  Level FlightAware Approximate
14:44 27.9640 -82.4782 155° Southeast  Level FlightAware Approximate
14:45 27.9212 -82.4556 155° Southeast  Level FlightAware Approximate
14:46 27.8784 -82.4330 155° Southeast  Level FlightAware Approximate
14:47 27.8356 -82.4105 155° Southeast  Level FlightAware Approximate
14:48 27.7928 -82.3879 155° Southeast  Level FlightAware Approximate
14:49 27.7500 -82.3654 155° Southeast  Level FlightAware Approximate
14:50 27.7072 -82.3428 155° Southeast  Level FlightAware Approximate
14:51 27.6644 -82.3203 155° Southeast  Level FlightAware Approximate
14:52 27.6216 -82.2979 155° Southeast  Level FlightAware Approximate
14:53 27.5788 -82.2754 155° Southeast  Level FlightAware Approximate
14:54 27.5359 -82.2529 155° Southeast  Level FlightAware Approximate
14:55 27.4931 -82.2305 155° Southeast  Level FlightAware Approximate
14:56 27.4504 -82.2078 154° Southeast  Level FlightAware Approximate
14:57 27.4079 -82.1845 154° Southeast  Level FlightAware Approximate
14:58 27.3655 -82.1613 154° Southeast  Level FlightAware Approximate
14:59 27.3230 -82.1381 154° Southeast  Level FlightAware Approximate
15:00 27.2805 -82.1149 154° Southeast  Level FlightAware Approximate
15:01 27.2380 -82.0918 154° Southeast  Level FlightAware Approximate
15:02 27.1955 -82.0686 154° Southeast  Level FlightAware Approximate
15:03 27.1530 -82.0455 154° Southeast  Level FlightAware Approximate
15:04 27.1105 -82.0224 154° Southeast  Level FlightAware Approximate
15:05 27.0676 -82.0004 156° South  Level FlightAware Approximate
15:06 27.0244 -81.9788 156° South  Level FlightAware Approximate
15:07 26.9813 -81.9572 156° South  Level FlightAware Approximate
15:08 26.9382 -81.9357 156° South  Level FlightAware Approximate
15:09 26.8951 -81.9141 156° South  Level FlightAware Approximate
15:10 26.8519 -81.8926 156° South  Level FlightAware Approximate
15:11 26.8091 -81.8704 154° Southeast  Level FlightAware Approximate
15:12 26.7665 -81.8476 155° Southeast  Level FlightAware Approximate
15:13 26.7238 -81.8248 155° Southeast  Level FlightAware Approximate
15:14 26.6812 -81.8021 155° Southeast  Level FlightAware Approximate
15:15 26.6386 -81.7794 155° Southeast  Level FlightAware Approximate
15:16 26.5959 -81.7567 155° Southeast  Level FlightAware Approximate
15:17 26.5509 -81.7581 193° South  Level FlightAware Approximate
15:18 26.5045 -81.7667 180° South  Level FlightAware Approximate
15:19 26.4573 -81.7667 180° South  Level FlightAware Approximate
15:20 26.4101 -81.7667 180° South  Level FlightAware Approximate
15:21 26.3628 -81.7667 180° South  Level FlightAware Approximate
15:22 26.3156 -81.7667 180° South  Level FlightAware Approximate
15:23 26.2684 -81.7667 180° South  Level FlightAware Approximate
15:24 26.2212 -81.7667 180° South  Level FlightAware Approximate
15:25 26.1740 -81.7667 180° South  Level FlightAware Approximate
15:26 26.1500 -81.7667 180° South  Level FlightAware Approximate
15:27 26.1524 -81.7756 180° South  Level Estimated
15:28 26.1524 -81.7756 180° South  Level Estimated
15:29 26.1524 -81.7756 180° South  Level Estimated
15:30 26.1524 -81.7756 180° South  Level Estimated
15:31 26.1524 -81.7756 180° South  Level Estimated
15:32 26.1524 -81.7756 180° South  Level Estimated
15:33 26.1524 -81.7756 180° South  Level Estimated